Terminal Aerodrome Forecast
Issued by NWS Sterling, VA

Current Version | Previous Version | Graphics & Text | Print | Product List | Glossary Off
Versions: 1 2 3 4 5 6 7 8 9 10 11 12 13 14 15 16 17 18 19 20 21 22 23 24

000
FTUS41 KLWX 010800 AAA
TAFIAD
TAF AMD
KIAD 010857Z 0109/0212 35008KT P6SM OVC025
     FM011400 36012KT 5SM -SHRA BR OVC015
     FM011700 35015G23KT 6SM -SHRA OVC025
     FM011900 35016G26KT P6SM OVC030
     FM012100 34015G24KT P6SM OVC035
     FM020100 34019G32KT P6SM OVC040
     FM021100 32018G31KT P6SM SCT080=

USA.gov is the U.S. government's official web portal to all federal, state and local government web resources and services.